sensor_id;sensor_type;location;lat;lon;timestamp;pressure;altitude;pressure_sealevel;temperature;humidity
14089;BME280;7120;52.890;6.040;2023-12-14T00:01:32;100990.13;;;6.11;100.00
14089;BME280;7120;52.890;6.040;2023-12-14T00:04:01;100989.56;;;6.09;100.00
14089;BME280;7120;52.890;6.040;2023-12-14T00:06:29;100991.50;;;6.14;100.00
14089;BME280;7120;52.890;6.040;2023-12-14T00:08:54;100998.50;;;5.94;100.00
14089;BME280;7120;52.890;6.040;2023-12-14T00:11:19;101004.50;;;6.01;100.00
14089;BME280;7120;52.890;6.040;2023-12-14T00:13:45;100998.25;;;6.01;100.00
14089;BME280;7120;52.890;6.040;2023-12-14T00:16:10;101006.66;;;5.99;100.00
14089;BME280;7120;52.890;6.040;2023-12-14T00:18:36;101003.41;;;6.02;100.00
14089;BME280;7120;52.890;6.040;2023-12-14T00:21:01;101012.09;;;5.99;100.00
14089;BME280;7120;52.890;6.040;2023-12-14T00:23:27;101013.69;;;5.95;100.00
14089;BME280;7120;52.890;6.040;2023-12-14T00:25:52;101022.09;;;5.99;100.00
14089;BME280;7120;52.890;6.040;2023-12-14T00:28:18;101015.88;;;5.98;100.00
14089;BME280;7120;52.890;6.040;2023-12-14T00:30:43;101029.72;;;5.97;100.00
14089;BME280;7120;52.890;6.040;2023-12-14T00:33:08;101024.75;;;5.84;100.00
14089;BME280;7120;52.890;6.040;2023-12-14T00:35:34;101021.31;;;5.93;100.00
14089;BME280;7120;52.890;6.040;2023-12-14T00:37:59;101023.47;;;5.96;100.00
14089;BME280;7120;52.890;6.040;2023-12-14T00:40:25;101027.28;;;6.00;100.00
14089;BME280;7120;52.890;6.040;2023-12-14T00:42:51;101028.41;;;6.10;100.00
14089;BME280;7120;52.890;6.040;2023-12-14T00:45:16;101035.41;;;5.95;100.00
14089;BME280;7120;52.890;6.040;2023-12-14T00:47:42;101049.00;;;6.05;100.00
14089;BME280;7120;52.890;6.040;2023-12-14T00:50:07;101044.81;;;5.83;100.00
14089;BME280;7120;52.890;6.040;2023-12-14T00:52:33;101041.63;;;5.91;100.00
14089;BME280;7120;52.890;6.040;2023-12-14T00:54:58;101054.91;;;5.87;100.00
14089;BME280;7120;52.890;6.040;2023-12-14T00:57:23;101060.69;;;6.06;100.00
14089;BME280;7120;52.890;6.040;2023-12-14T00:59:49;101053.78;;;5.83;100.00
14089;BME280;7120;52.890;6.040;2023-12-14T01:02:14;101057.34;;;5.89;100.00
14089;BME280;7120;52.890;6.040;2023-12-14T01:04:39;101059.50;;;5.87;100.00
14089;BME280;7120;52.890;6.040;2023-12-14T01:07:05;101066.03;;;5.86;100.00
14089;BME280;7120;52.890;6.040;2023-12-14T01:09:30;101077.69;;;5.86;100.00
14089;BME280;7120;52.890;6.040;2023-12-14T01:11:55;101079.97;;;5.99;100.00
14089;BME280;7120;52.890;6.040;2023-12-14T01:14:21;101090.78;;;5.94;100.00
14089;BME280;7120;52.890;6.040;2023-12-14T01:16:46;101097.56;;;5.97;100.00
14089;BME280;7120;52.890;6.040;2023-12-14T01:19:11;101103.44;;;5.84;100.00
14089;BME280;7120;52.890;6.040;2023-12-14T01:21:37;101112.44;;;5.89;100.00
14089;BME280;7120;52.890;6.040;2023-12-14T01:24:02;101122.69;;;5.77;100.00
14089;BME280;7120;52.890;6.040;2023-12-14T01:26:28;101126.97;;;5.68;100.00
14089;BME280;7120;52.890;6.040;2023-12-14T01:28:53;101126.69;;;5.64;100.00
14089;BME280;7120;52.890;6.040;2023-12-14T01:31:19;101125.34;;;5.67;100.00
14089;BME280;7120;52.890;6.040;2023-12-14T01:33:48;101125.63;;;5.70;100.00
14089;BME280;7120;52.890;6.040;2023-12-14T01:36:22;101136.28;;;5.82;100.00
14089;BME280;7120;52.890;6.040;2023-12-14T01:38:49;101138.19;;;5.82;100.00
14089;BME280;7120;52.890;6.040;2023-12-14T01:41:14;101142.16;;;5.69;100.00
14089;BME280;7120;52.890;6.040;2023-12-14T01:43:40;101139.69;;;5.62;100.00
14089;BME280;7120;52.890;6.040;2023-12-14T01:46:05;101145.25;;;5.83;100.00
14089;BME280;7120;52.890;6.040;2023-12-14T01:48:30;101147.69;;;5.79;100.00
14089;BME280;7120;52.890;6.040;2023-12-14T01:50:56;101155.75;;;5.69;100.00
14089;BME280;7120;52.890;6.040;2023-12-14T01:53:21;101162.88;;;5.80;100.00
14089;BME280;7120;52.890;6.040;2023-12-14T01:55:47;101161.22;;;5.74;100.00
14089;BME280;7120;52.890;6.040;2023-12-14T01:58:12;101168.59;;;5.84;100.00
14089;BME280;7120;52.890;6.040;2023-12-14T02:00:42;101173.53;;;5.92;100.00
14089;BME280;7120;52.890;6.040;2023-12-14T02:03:09;101176.63;;;5.68;100.00
14089;BME280;7120;52.890;6.040;2023-12-14T02:05:34;101189.59;;;5.61;100.00
14089;BME280;7120;52.890;6.040;2023-12-14T02:08:00;101189.66;;;5.66;100.00
14089;BME280;7120;52.890;6.040;2023-12-14T02:10:25;101186.34;;;5.59;100.00
14089;BME280;7120;52.890;6.040;2023-12-14T02:12:50;101198.50;;;5.51;100.00
14089;BME280;7120;52.890;6.040;2023-12-14T02:15:16;101199.03;;;5.54;100.00
14089;BME280;7120;52.890;6.040;2023-12-14T02:17:41;101194.53;;;5.64;100.00
14089;BME280;7120;52.890;6.040;2023-12-14T02:20:06;101201.22;;;5.51;100.00
14089;BME280;7120;52.890;6.040;2023-12-14T02:22:35;101211.63;;;5.65;100.00
14089;BME280;7120;52.890;6.040;2023-12-14T02:25:01;101212.72;;;5.69;100.00
14089;BME280;7120;52.890;6.040;2023-12-14T02:27:26;101218.47;;;5.72;100.00
14089;BME280;7120;52.890;6.040;2023-12-14T02:29:51;101224.59;;;5.63;100.00
14089;BME280;7120;52.890;6.040;2023-12-14T02:32:17;101217.66;;;5.72;100.00
14089;BME280;7120;52.890;6.040;2023-12-14T02:34:42;101220.47;;;5.55;100.00
14089;BME280;7120;52.890;6.040;2023-12-14T02:37:07;101228.22;;;5.73;100.00
14089;BME280;7120;52.890;6.040;2023-12-14T02:39:33;101229.22;;;5.62;100.00
14089;BME280;7120;52.890;6.040;2023-12-14T02:41:58;101229.34;;;5.77;100.00
14089;BME280;7120;52.890;6.040;2023-12-14T02:44:23;101240.63;;;5.96;100.00
14089;BME280;7120;52.890;6.040;2023-12-14T02:46:49;101237.16;;;6.01;100.00
14089;BME280;7120;52.890;6.040;2023-12-14T02:49:14;101242.84;;;6.04;100.00
14089;BME280;7120;52.890;6.040;2023-12-14T02:51:39;101233.16;;;6.19;100.00
14089;BME280;7120;52.890;6.040;2023-12-14T02:54:05;101234.00;;;6.24;100.00
14089;BME280;7120;52.890;6.040;2023-12-14T02:56:30;101244.56;;;6.16;100.00
14089;BME280;7120;52.890;6.040;2023-12-14T02:58:55;101241.03;;;6.15;100.00
14089;BME280;7120;52.890;6.040;2023-12-14T03:01:20;101234.00;;;6.24;100.00
14089;BME280;7120;52.890;6.040;2023-12-14T03:03:49;101237.59;;;6.30;100.00
14089;BME280;7120;52.890;6.040;2023-12-14T03:06:14;101251.94;;;6.25;100.00
14089;BME280;7120;52.890;6.040;2023-12-14T03:08:39;101244.56;;;6.16;100.00
14089;BME280;7120;52.890;6.040;2023-12-14T03:11:05;101246.38;;;6.00;100.00
14089;BME280;7120;52.890;6.040;2023-12-14T03:13:30;101259.59;;;5.91;100.00
14089;BME280;7120;52.890;6.040;2023-12-14T03:15:55;101264.41;;;5.84;100.00
14089;BME280;7120;52.890;6.040;2023-12-14T03:18:21;101269.06;;;5.89;100.00
14089;BME280;7120;52.890;6.040;2023-12-14T03:20:46;101280.91;;;5.77;100.00
14089;BME280;7120;52.890;6.040;2023-12-14T03:23:11;101285.34;;;5.89;100.00
14089;BME280;7120;52.890;6.040;2023-12-14T03:25:37;101290.56;;;5.95;100.00
14089;BME280;7120;52.890;6.040;2023-12-14T03:28:02;101289.00;;;6.04;100.00
14089;BME280;7120;52.890;6.040;2023-12-14T03:30:27;101290.13;;;6.09;100.00
14089;BME280;7120;52.890;6.040;2023-12-14T03:32:53;101283.06;;;6.08;100.00
14089;BME280;7120;52.890;6.040;2023-12-14T03:35:18;101285.91;;;5.91;100.00
14089;BME280;7120;52.890;6.040;2023-12-14T03:37:43;101281.00;;;5.88;100.00
14089;BME280;7120;52.890;6.040;2023-12-14T03:40:09;101291.19;;;5.75;100.00
14089;BME280;7120;52.890;6.040;2023-12-14T03:42:35;101292.84;;;5.76;100.00
14089;BME280;7120;52.890;6.040;2023-12-14T03:45:00;101289.09;;;5.83;100.00
14089;BME280;7120;52.890;6.040;2023-12-14T03:47:26;101279.63;;;5.85;100.00
14089;BME280;7120;52.890;6.040;2023-12-14T03:49:51;101297.75;;;5.79;100.00
14089;BME280;7120;52.890;6.040;2023-12-14T03:52:16;101287.97;;;5.78;100.00
14089;BME280;7120;52.890;6.040;2023-12-14T03:54:42;101291.59;;;5.89;100.00
14089;BME280;7120;52.890;6.040;2023-12-14T03:57:07;101300.88;;;5.93;100.00
14089;BME280;7120;52.890;6.040;2023-12-14T03:59:32;101303.41;;;6.05;100.00
14089;BME280;7120;52.890;6.040;2023-12-14T04:01:58;101307.41;;;5.97;100.00
14089;BME280;7120;52.890;6.040;2023-12-14T04:04:24;101311.69;;;5.61;100.00
14089;BME280;7120;52.890;6.040;2023-12-14T04:06:49;101316.41;;;5.71;100.00
14089;BME280;7120;52.890;6.040;2023-12-14T04:09:16;101317.53;;;5.75;100.00
14089;BME280;7120;52.890;6.040;2023-12-14T04:11:41;101312.41;;;5.78;100.00
14089;BME280;7120;52.890;6.040;2023-12-14T04:14:06;101319.56;;;5.63;100.00
14089;BME280;7120;52.890;6.040;2023-12-14T04:16:32;101324.25;;;5.67;100.00
14089;BME280;7120;52.890;6.040;2023-12-14T04:18:57;101331.84;;;5.70;100.00
14089;BME280;7120;52.890;6.040;2023-12-14T04:21:23;101332.13;;;5.69;100.00
14089;BME280;7120;52.890;6.040;2023-12-14T04:23:48;101334.72;;;5.86;100.00
14089;BME280;7120;52.890;6.040;2023-12-14T04:26:13;101339.34;;;5.90;100.00
14089;BME280;7120;52.890;6.040;2023-12-14T04:28:39;101336.84;;;5.84;100.00
14089;BME280;7120;52.890;6.040;2023-12-14T04:31:05;101346.28;;;5.76;100.00
14089;BME280;7120;52.890;6.040;2023-12-14T04:33:30;101348.09;;;5.65;100.00
14089;BME280;7120;52.890;6.040;2023-12-14T04:35:57;101349.22;;;5.69;100.00
14089;BME280;7120;52.890;6.040;2023-12-14T04:38:22;101357.75;;;5.83;100.00
14089;BME280;7120;52.890;6.040;2023-12-14T04:40:47;101364.41;;;5.70;100.00
14089;BME280;7120;52.890;6.040;2023-12-14T04:43:13;101362.22;;;5.67;100.00
14089;BME280;7120;52.890;6.040;2023-12-14T04:45:38;101376.72;;;5.78;100.00
14089;BME280;7120;52.890;6.040;2023-12-14T04:48:03;101379.72;;;5.82;100.00
14089;BME280;7120;52.890;6.040;2023-12-14T04:50:29;101377.88;;;5.87;100.00
14089;BME280;7120;52.890;6.040;2023-12-14T04:52:54;101377.53;;;5.78;100.00
14089;BME280;7120;52.890;6.040;2023-12-14T04:55:19;101393.34;;;5.87;100.00
14089;BME280;7120;52.890;6.040;2023-12-14T04:57:45;101393.34;;;5.87;100.00
14089;BME280;7120;52.890;6.040;2023-12-14T05:00:12;101398.19;;;5.79;100.00
14089;BME280;7120;52.890;6.040;2023-12-14T05:02:37;101399.00;;;5.80;100.00
14089;BME280;7120;52.890;6.040;2023-12-14T05:05:03;101404.69;;;5.78;100.00
14089;BME280;7120;52.890;6.040;2023-12-14T05:07:28;101425.34;;;5.85;100.00
14089;BME280;7120;52.890;6.040;2023-12-14T05:09:55;101420.72;;;5.80;100.00
14089;BME280;7120;52.890;6.040;2023-12-14T05:12:20;101425.94;;;5.87;100.00
14089;BME280;7120;52.890;6.040;2023-12-14T05:14:46;101421.78;;;5.79;100.00
14089;BME280;7120;52.890;6.040;2023-12-14T05:17:11;101426.59;;;5.99;100.00
14089;BME280;7120;52.890;6.040;2023-12-14T05:19:36;101435.59;;;5.99;100.00
14089;BME280;7120;52.890;6.040;2023-12-14T05:22:02;101435.34;;;6.01;100.00
14089;BME280;7120;52.890;6.040;2023-12-14T05:24:27;101434.47;;;5.95;100.00
14089;BME280;7120;52.890;6.040;2023-12-14T05:26:52;101452.75;;;5.83;100.00
14089;BME280;7120;52.890;6.040;2023-12-14T05:29:18;101453.38;;;5.90;100.00
14089;BME280;7120;52.890;6.040;2023-12-14T05:31:45;101451.03;;;5.99;100.00
14089;BME280;7120;52.890;6.040;2023-12-14T05:34:11;101456.31;;;6.11;100.00
14089;BME280;7120;52.890;6.040;2023-12-14T05:36:36;101462.78;;;6.04;100.00
14089;BME280;7120;52.890;6.040;2023-12-14T05:39:01;101461.19;;;6.09;100.00
14089;BME280;7120;52.890;6.040;2023-12-14T05:41:28;101462.91;;;6.20;100.00
14089;BME280;7120;52.890;6.040;2023-12-14T05:43:55;101475.72;;;5.97;100.00
14089;BME280;7120;52.890;6.040;2023-12-14T05:46:23;101483.75;;;6.09;100.00
14089;BME280;7120;52.890;6.040;2023-12-14T05:48:49;101483.38;;;6.00;100.00
14089;BME280;7120;52.890;6.040;2023-12-14T05:51:35;101481.44;;;5.96;100.00
14089;BME280;7120;52.890;6.040;2023-12-14T05:54:02;101492.03;;;5.97;100.00
14089;BME280;7120;52.890;6.040;2023-12-14T05:56:28;101490.25;;;6.08;100.00
14089;BME280;7120;52.890;6.040;2023-12-14T05:58:54;101488.28;;;6.03;100.00
14089;BME280;7120;52.890;6.040;2023-12-14T06:01:19;101501.72;;;6.15;100.00
14089;BME280;7120;52.890;6.040;2023-12-14T06:03:45;101504.09;;;6.07;100.00
14089;BME280;7120;52.890;6.040;2023-12-14T06:06:12;101506.00;;;6.11;100.00
14089;BME280;7120;52.890;6.040;2023-12-14T06:08:40;101522.16;;;6.23;100.00
14089;BME280;7120;52.890;6.040;2023-12-14T06:11:06;101518.31;;;6.19;100.00
14089;BME280;7120;52.890;6.040;2023-12-14T06:13:32;101513.88;;;6.35;100.00
14089;BME280;7120;52.890;6.040;2023-12-14T06:15:58;101525.66;;;6.45;100.00
14089;BME280;7120;52.890;6.040;2023-12-14T06:18:23;101531.84;;;6.41;100.00
14089;BME280;7120;52.890;6.040;2023-12-14T06:20:48;101534.41;;;6.25;100.00
14089;BME280;7120;52.890;6.040;2023-12-14T06:23:14;101528.94;;;6.20;100.00
14089;BME280;7120;52.890;6.040;2023-12-14T06:25:39;101538.66;;;6.16;100.00
14089;BME280;7120;52.890;6.040;2023-12-14T06:28:05;101544.34;;;6.15;100.00
14089;BME280;7120;52.890;6.040;2023-12-14T06:30:30;101550.69;;;6.20;100.00
14089;BME280;7120;52.890;6.040;2023-12-14T06:32:55;101549.47;;;6.11;100.00
14089;BME280;7120;52.890;6.040;2023-12-14T06:35:21;101547.44;;;6.23;100.00
14089;BME280;7120;52.890;6.040;2023-12-14T06:37:47;101541.69;;;6.20;100.00
14089;BME280;7120;52.890;6.040;2023-12-14T06:40:12;101545.44;;;6.14;100.00
14089;BME280;7120;52.890;6.040;2023-12-14T06:42:38;101542.81;;;6.24;100.00
14089;BME280;7120;52.890;6.040;2023-12-14T06:45:03;101545.28;;;6.25;100.00
14089;BME280;7120;52.890;6.040;2023-12-14T06:47:29;101547.38;;;6.18;100.00
14089;BME280;7120;52.890;6.040;2023-12-14T06:49:54;101546.00;;;6.16;100.00
14089;BME280;7120;52.890;6.040;2023-12-14T06:52:22;101557.69;;;6.16;100.00
14089;BME280;7120;52.890;6.040;2023-12-14T06:54:47;101569.69;;;6.20;100.00
14089;BME280;7120;52.890;6.040;2023-12-14T06:57:13;101571.00;;;6.18;100.00
14089;BME280;7120;52.890;6.040;2023-12-14T06:59:38;101571.19;;;6.11;100.00
14089;BME280;7120;52.890;6.040;2023-12-14T07:02:03;101576.31;;;6.08;100.00
14089;BME280;7120;52.890;6.040;2023-12-14T07:04:29;101581.66;;;6.24;100.00
14089;BME280;7120;52.890;6.040;2023-12-14T07:06:54;101576.84;;;6.31;100.00
14089;BME280;7120;52.890;6.040;2023-12-14T07:09:20;101588.25;;;6.28;100.00
14089;BME280;7120;52.890;6.040;2023-12-14T07:11:45;101595.66;;;6.38;100.00
14089;BME280;7120;52.890;6.040;2023-12-14T07:14:12;101604.16;;;6.42;100.00
14089;BME280;7120;52.890;6.040;2023-12-14T07:16:37;101603.72;;;6.55;100.00
14089;BME280;7120;52.890;6.040;2023-12-14T07:19:02;101607.22;;;6.50;100.00
14089;BME280;7120;52.890;6.040;2023-12-14T07:21:27;101612.94;;;6.54;100.00
14089;BME280;7120;52.890;6.040;2023-12-14T07:23:53;101618.22;;;6.39;100.00
14089;BME280;7120;52.890;6.040;2023-12-14T07:26:18;101627.31;;;6.49;100.00
14089;BME280;7120;52.890;6.040;2023-12-14T07:28:43;101626.38;;;6.39;100.00
14089;BME280;7120;52.890;6.040;2023-12-14T07:31:09;101635.81;;;6.58;100.00
14089;BME280;7120;52.890;6.040;2023-12-14T07:33:34;101652.63;;;6.55;100.00
14089;BME280;7120;52.890;6.040;2023-12-14T07:36:00;101654.78;;;6.53;100.00
14089;BME280;7120;52.890;6.040;2023-12-14T07:38:26;101652.69;;;6.60;100.00
14089;BME280;7120;52.890;6.040;2023-12-14T07:40:51;101653.34;;;6.45;100.00
14089;BME280;7120;52.890;6.040;2023-12-14T07:43:17;101661.75;;;6.44;100.00
14089;BME280;7120;52.890;6.040;2023-12-14T07:45:43;101663.81;;;6.58;100.00
14089;BME280;7120;52.890;6.040;2023-12-14T07:48:09;101665.41;;;6.54;100.00
14089;BME280;7120;52.890;6.040;2023-12-14T07:50:34;101671.63;;;6.50;100.00
14089;BME280;7120;52.890;6.040;2023-12-14T07:52:59;101678.31;;;6.42;100.00
14089;BME280;7120;52.890;6.040;2023-12-14T07:55:24;101681.13;;;6.52;100.00
14089;BME280;7120;52.890;6.040;2023-12-14T07:57:50;101685.19;;;6.50;100.00
14089;BME280;7120;52.890;6.040;2023-12-14T08:00:16;101695.41;;;6.65;100.00
14089;BME280;7120;52.890;6.040;2023-12-14T08:02:41;101695.81;;;6.51;100.00
14089;BME280;7120;52.890;6.040;2023-12-14T08:05:07;101698.00;;;6.54;100.00
14089;BME280;7120;52.890;6.040;2023-12-14T08:07:32;101692.00;;;6.52;100.00
14089;BME280;7120;52.890;6.040;2023-12-14T08:09:59;101697.25;;;6.59;100.00
14089;BME280;7120;52.890;6.040;2023-12-14T08:12:24;101691.00;;;6.58;100.00
14089;BME280;7120;52.890;6.040;2023-12-14T08:14:50;101692.78;;;6.70;100.00
14089;BME280;7120;52.890;6.040;2023-12-14T08:17:16;101694.84;;;6.63;100.00
14089;BME280;7120;52.890;6.040;2023-12-14T08:19:42;101699.09;;;6.53;100.00
14089;BME280;7120;52.890;6.040;2023-12-14T08:22:08;101705.50;;;6.69;100.00
14089;BME280;7120;52.890;6.040;2023-12-14T08:24:36;101700.53;;;6.61;100.00
14089;BME280;7120;52.890;6.040;2023-12-14T08:27:01;101689.66;;;6.61;100.00
14089;BME280;7120;52.890;6.040;2023-12-14T08:29:27;101686.47;;;6.69;100.00
14089;BME280;7120;52.890;6.040;2023-12-14T08:31:52;101702.94;;;6.57;100.00
14089;BME280;7120;52.890;6.040;2023-12-14T08:34:18;101702.03;;;6.74;100.00
14089;BME280;7120;52.890;6.040;2023-12-14T08:36:44;101704.00;;;6.78;100.00
14089;BME280;7120;52.890;6.040;2023-12-14T08:39:09;101713.66;;;6.91;100.00
14089;BME280;7120;52.890;6.040;2023-12-14T08:41:35;101722.47;;;7.03;100.00
14089;BME280;7120;52.890;6.040;2023-12-14T08:44:00;101731.63;;;6.92;100.00
14089;BME280;7120;52.890;6.040;2023-12-14T08:46:25;101731.16;;;7.00;100.00
14089;BME280;7120;52.890;6.040;2023-12-14T08:48:50;101739.38;;;7.05;100.00
14089;BME280;7120;52.890;6.040;2023-12-14T08:51:17;101750.13;;;7.22;100.00
14089;BME280;7120;52.890;6.040;2023-12-14T08:53:42;101751.91;;;7.11;100.00
14089;BME280;7120;52.890;6.040;2023-12-14T08:56:08;101744.28;;;7.08;100.00
14089;BME280;7120;52.890;6.040;2023-12-14T08:58:34;101763.31;;;7.08;100.00
14089;BME280;7120;52.890;6.040;2023-12-14T09:00:59;101760.25;;;7.00;100.00
14089;BME280;7120;52.890;6.040;2023-12-14T09:03:24;101763.66;;;7.12;100.00
14089;BME280;7120;52.890;6.040;2023-12-14T09:05:51;101761.22;;;7.15;100.00
14089;BME280;7120;52.890;6.040;2023-12-14T09:08:16;101757.31;;;7.33;100.00
14089;BME280;7120;52.890;6.040;2023-12-14T09:10:42;101764.34;;;7.29;100.00
14089;BME280;7120;52.890;6.040;2023-12-14T09:13:07;101757.72;;;7.47;100.00
14089;BME280;7120;52.890;6.040;2023-12-14T09:15:33;101758.69;;;7.68;100.00
14089;BME280;7120;52.890;6.040;2023-12-14T09:17:59;101757.59;;;7.64;100.00
14089;BME280;7120;52.890;6.040;2023-12-14T09:20:24;101768.53;;;7.69;100.00
14089;BME280;7120;52.890;6.040;2023-12-14T09:22:50;101773.94;;;7.37;100.00
14089;BME280;7120;52.890;6.040;2023-12-14T09:25:15;101776.03;;;7.57;100.00
14089;BME280;7120;52.890;6.040;2023-12-14T09:27:41;101775.28;;;7.61;100.00
14089;BME280;7120;52.890;6.040;2023-12-14T09:30:07;101775.91;;;7.74;100.00
14089;BME280;7120;52.890;6.040;2023-12-14T09:32:33;101776.00;;;7.89;100.00
14089;BME280;7120;52.890;6.040;2023-12-14T09:34:58;101791.72;;;8.14;100.00
14089;BME280;7120;52.890;6.040;2023-12-14T09:37:23;101789.06;;;8.24;100.00
14089;BME280;7120;52.890;6.040;2023-12-14T09:39:49;101795.22;;;8.09;100.00
14089;BME280;7120;52.890;6.040;2023-12-14T09:42:17;101797.44;;;8.12;100.00
14089;BME280;7120;52.890;6.040;2023-12-14T09:44:43;101791.28;;;8.27;100.00
14089;BME280;7120;52.890;6.040;2023-12-14T09:47:09;101799.59;;;8.47;100.00
14089;BME280;7120;52.890;6.040;2023-12-14T09:49:35;101801.59;;;8.62;100.00
14089;BME280;7120;52.890;6.040;2023-12-14T09:52:02;101807.94;;;8.78;100.00
14089;BME280;7120;52.890;6.040;2023-12-14T09:54:28;101812.03;;;8.75;100.00
14089;BME280;7120;52.890;6.040;2023-12-14T09:56:54;101811.84;;;8.45;100.00
14089;BME280;7120;52.890;6.040;2023-12-14T09:59:20;101820.47;;;8.79;100.00
14089;BME280;7120;52.890;6.040;2023-12-14T10:01:45;101821.28;;;8.79;100.00
14089;BME280;7120;52.890;6.040;2023-12-14T10:04:16;101821.06;;;8.81;100.00
14089;BME280;7120;52.890;6.040;2023-12-14T10:06:44;101825.66;;;8.80;100.00
14089;BME280;7120;52.890;6.040;2023-12-14T10:09:10;101827.09;;;8.88;100.00
14089;BME280;7120;52.890;6.040;2023-12-14T10:11:39;101831.25;;;9.11;100.00
14089;BME280;7120;52.890;6.040;2023-12-14T10:14:31;101831.53;;;9.10;100.00
14089;BME280;7120;52.890;6.040;2023-12-14T10:16:57;101839.31;;;8.38;100.00
14089;BME280;7120;52.890;6.040;2023-12-14T10:19:23;101835.53;;;8.39;100.00
14089;BME280;7120;52.890;6.040;2023-12-14T10:21:49;101840.84;;;8.61;100.00
14089;BME280;7120;52.890;6.040;2023-12-14T10:24:15;101855.47;;;8.92;100.00
14089;BME280;7120;52.890;6.040;2023-12-14T10:26:41;101854.28;;;8.78;100.00
14089;BME280;7120;52.890;6.040;2023-12-14T10:29:07;101852.13;;;8.80;100.00
14089;BME280;7120;52.890;6.040;2023-12-14T10:31:33;101845.31;;;8.83;100.00
14089;BME280;7120;52.890;6.040;2023-12-14T10:34:03;101843.94;;;8.75;100.00
14089;BME280;7120;52.890;6.040;2023-12-14T10:36:29;101849.53;;;8.58;100.00
14089;BME280;7120;52.890;6.040;2023-12-14T10:38:57;101855.94;;;8.79;100.00
14089;BME280;7120;52.890;6.040;2023-12-14T10:41:23;101857.91;;;8.94;100.00
14089;BME280;7120;52.890;6.040;2023-12-14T10:43:50;101862.16;;;9.32;100.00
14089;BME280;7120;52.890;6.040;2023-12-14T10:46:16;101853.44;;;9.40;100.00
14089;BME280;7120;52.890;6.040;2023-12-14T10:48:43;101846.59;;;9.32;100.00
14089;BME280;7120;52.890;6.040;2023-12-14T10:51:11;101855.88;;;9.26;100.00
14089;BME280;7120;52.890;6.040;2023-12-14T10:53:37;101861.31;;;9.26;100.00
14089;BME280;7120;52.890;6.040;2023-12-14T10:56:04;101850.06;;;9.07;100.00
14089;BME280;7120;52.890;6.040;2023-12-14T10:58:54;101847.78;;;8.84;100.00
14089;BME280;7120;52.890;6.040;2023-12-14T11:01:22;101837.56;;;9.22;100.00
14089;BME280;7120;52.890;6.040;2023-12-14T11:03:49;101847.91;;;9.10;100.00
14089;BME280;7120;52.890;6.040;2023-12-14T11:06:27;101857.41;;;9.07;100.00
14089;BME280;7120;52.890;6.040;2023-12-14T11:08:58;101859.38;;;9.12;100.00
14089;BME280;7120;52.890;6.040;2023-12-14T11:11:28;101862.31;;;9.00;100.00
14089;BME280;7120;52.890;6.040;2023-12-14T11:13:53;101862.16;;;9.32;100.00
14089;BME280;7120;52.890;6.040;2023-12-14T11:16:20;101859.63;;;9.15;100.00
14089;BME280;7120;52.890;6.040;2023-12-14T11:19:23;101871.16;;;9.27;100.00
14089;BME280;7120;52.890;6.040;2023-12-14T11:24:34;101887.97;;;9.04;100.00
14089;BME280;7120;52.890;6.040;2023-12-14T11:27:04;101880.59;;;8.99;100.00
14089;BME280;7120;52.890;6.040;2023-12-14T11:29:29;101892.28;;;8.95;100.00
14089;BME280;7120;52.890;6.040;2023-12-14T11:31:55;101898.97;;;8.72;100.00
14089;BME280;7120;52.890;6.040;2023-12-14T11:34:24;101896.66;;;8.91;100.00
14089;BME280;7120;52.890;6.040;2023-12-14T11:36:49;101894.47;;;8.50;100.00
14089;BME280;7120;52.890;6.040;2023-12-14T11:39:15;101893.75;;;8.60;100.00
14089;BME280;7120;52.890;6.040;2023-12-14T11:41:40;101902.03;;;8.80;100.00
14089;BME280;7120;52.890;6.040;2023-12-14T11:44:05;101899.81;;;8.72;100.00
14089;BME280;7120;52.890;6.040;2023-12-14T11:46:31;101905.09;;;8.47;100.00
14089;BME280;7120;52.890;6.040;2023-12-14T11:48:57;101916.59;;;8.96;100.00
14089;BME280;7120;52.890;6.040;2023-12-14T11:51:23;101907.72;;;9.26;100.00
14089;BME280;7120;52.890;6.040;2023-12-14T11:53:50;101920.94;;;8.92;100.00
14089;BME280;7120;52.890;6.040;2023-12-14T11:56:20;101925.84;;;8.90;100.00
14089;BME280;7120;52.890;6.040;2023-12-14T11:58:48;101933.03;;;9.12;100.00
14089;BME280;7120;52.890;6.040;2023-12-14T12:01:18;101926.22;;;9.14;100.00
14089;BME280;7120;52.890;6.040;2023-12-14T12:03:45;101930.25;;;9.01;100.00
14089;BME280;7120;52.890;6.040;2023-12-14T12:08:46;101938.63;;;8.85;100.00
14089;BME280;7120;52.890;6.040;2023-12-14T12:11:16;101938.34;;;8.86;100.00
14089;BME280;7120;52.890;6.040;2023-12-14T12:13:42;101939.41;;;8.80;100.00
14089;BME280;7120;52.890;6.040;2023-12-14T12:16:14;101941.16;;;8.54;100.00
14089;BME280;7120;52.890;6.040;2023-12-14T12:18:39;101949.31;;;8.91;100.00
14089;BME280;7120;52.890;6.040;2023-12-14T12:21:06;101939.75;;;8.89;100.00
14089;BME280;7120;52.890;6.040;2023-12-14T12:23:33;101935.88;;;8.85;100.00
14089;BME280;7120;52.890;6.040;2023-12-14T12:25:58;101930.94;;;8.76;100.00
14089;BME280;7120;52.890;6.040;2023-12-14T12:28:24;101938.94;;;8.93;100.00
14089;BME280;7120;52.890;6.040;2023-12-14T12:30:49;101938.63;;;8.85;100.00
14089;BME280;7120;52.890;6.040;2023-12-14T12:33:14;101942.50;;;8.57;100.00
14089;BME280;7120;52.890;6.040;2023-12-14T12:35:39;101938.56;;;8.74;100.00
14089;BME280;7120;52.890;6.040;2023-12-14T12:38:05;101939.41;;;8.80;100.00
14089;BME280;7120;52.890;6.040;2023-12-14T12:40:30;101936.06;;;8.73;100.00
14089;BME280;7120;52.890;6.040;2023-12-14T12:42:56;101934.41;;;8.67;100.00
14089;BME280;7120;52.890;6.040;2023-12-14T12:45:21;101942.84;;;8.60;100.00
14089;BME280;7120;52.890;6.040;2023-12-14T12:47:50;101948.13;;;8.45;100.00
14089;BME280;7120;52.890;6.040;2023-12-14T12:50:15;101943.56;;;8.93;100.00
14089;BME280;7120;52.890;6.040;2023-12-14T12:52:40;101941.16;;;8.54;100.00
14089;BME280;7120;52.890;6.040;2023-12-14T12:55:07;101942.66;;;8.77;100.00
14089;BME280;7120;52.890;6.040;2023-12-14T12:57:35;101946.63;;;8.96;100.00
14089;BME280;7120;52.890;6.040;2023-12-14T13:00:01;101945.78;;;8.96;100.00